createdAt,value
2023-03-25T00:01:00.525Z,67.44
2023-03-25T00:05:04.021Z,67.64
2023-03-25T00:09:05.831Z,67.59
2023-03-25T00:13:09.118Z,66.75
2023-03-25T00:17:10.726Z,67.48
2023-03-25T00:21:12.994Z,66.29
2023-03-25T00:25:19.497Z,65.74
2023-03-25T00:29:22.868Z,66.75
2023-03-25T00:33:23.606Z,66.67
2023-03-25T00:37:25.866Z,66.89
2023-03-25T00:41:28.483Z,68.49
2023-03-25T00:45:31.978Z,69.95
2023-03-25T00:49:32.610Z,71.62
2023-03-25T00:53:33.300Z,72.26
2023-03-25T00:57:34.204Z,73.19
2023-03-25T01:01:39.813Z,73.87
2023-03-25T01:05:41.933Z,74.75
2023-03-25T01:09:46.867Z,74.13
2023-03-25T01:13:47.762Z,73.95
2023-03-25T01:17:51.613Z,74.00
2023-03-25T01:21:51.983Z,74.82
2023-03-25T01:25:52.723Z,73.05
2023-03-25T01:29:54.809Z,72.61
2023-03-25T01:33:57.942Z,72.06
2023-03-25T01:37:59.401Z,71.26
2023-03-25T01:41:59.987Z,72.38
2023-03-25T01:46:01.013Z,73.57
2023-03-25T01:50:04.847Z,74.41
2023-03-25T01:54:05.639Z,74.31
2023-03-25T01:58:12.903Z,74.32
2023-03-25T02:02:15.927Z,73.39
2023-03-25T02:06:25.421Z,73.95
2023-03-25T02:10:26.788Z,73.63
2023-03-25T02:14:34.069Z,72.67
2023-03-25T02:18:52.303Z,71.88
2023-03-25T02:23:33.706Z,72.01
2023-03-25T02:28:10.349Z,72.93
2023-03-25T02:32:30.076Z,72.92
2023-03-25T02:37:17.123Z,73.35
2023-03-25T02:41:26.899Z,72.69
2023-03-25T02:45:37.214Z,72.54
2023-03-25T02:49:42.150Z,73.00
2023-03-25T02:53:47.599Z,72.44
2023-03-25T02:57:57.436Z,72.76
2023-03-25T03:02:01.652Z,71.91
2023-03-25T03:06:05.548Z,71.76
2023-03-25T03:10:23.622Z,70.95
2023-03-25T03:14:46.768Z,71.53
2023-03-25T03:19:02.566Z,70.62
2023-03-25T03:23:15.035Z,70.42
2023-03-25T03:27:29.998Z,70.32
2023-03-25T03:31:48.150Z,71.00
2023-03-25T03:36:11.017Z,71.77
2023-03-25T03:40:19.413Z,72.38
2023-03-25T03:44:25.626Z,71.63
2023-03-25T03:48:35.244Z,72.07
2023-03-25T03:52:43.733Z,71.94
2023-03-25T03:56:55.502Z,71.78
2023-03-25T04:01:10.581Z,71.47
2023-03-25T04:05:19.642Z,70.84
2023-03-25T04:09:34.877Z,71.23
2023-03-25T04:13:40.631Z,70.80
2023-03-25T04:17:41.833Z,70.42
2023-03-25T04:21:45.573Z,71.15
2023-03-25T04:25:48.094Z,70.76
2023-03-25T04:29:49.300Z,69.51
2023-03-25T04:33:50.922Z,69.59
2023-03-25T04:37:57.749Z,70.08
2023-03-25T04:42:02.047Z,70.26
2023-03-25T04:46:03.354Z,71.68
2023-03-25T04:50:04.055Z,73.04
2023-03-25T04:54:08.066Z,74.13
2023-03-25T04:58:08.869Z,75.83
2023-03-25T05:02:13.792Z,76.35
2023-03-25T05:06:14.361Z,76.75
2023-03-25T05:10:18.930Z,76.50
2023-03-25T05:14:23.204Z,76.29
2023-03-25T05:18:23.521Z,76.26
2023-03-25T05:22:23.922Z,76.89
2023-03-25T05:26:29.603Z,75.77
2023-03-25T05:30:32.878Z,74.14
2023-03-25T05:34:33.313Z,72.74
2023-03-25T05:38:34.162Z,72.55
2023-03-25T05:42:38.012Z,71.05
2023-03-25T05:46:38.884Z,70.39
2023-03-25T05:50:42.988Z,69.58
2023-03-25T05:54:43.494Z,69.03
2023-03-25T05:58:46.444Z,66.74
2023-03-25T06:02:46.867Z,67.10
2023-03-25T06:06:47.797Z,65.51
2023-03-25T06:10:48.947Z,65.00
2023-03-25T06:14:54.438Z,64.39
2023-03-25T06:18:56.682Z,63.51
2023-03-25T06:22:57.527Z,63.61
2023-03-25T06:26:58.032Z,63.60
2023-03-25T06:31:09.177Z,64.15
2023-03-25T06:35:13.674Z,62.87
2023-03-25T06:39:15.639Z,63.64
2023-03-25T06:43:16.368Z,62.81
2023-03-25T06:47:39.052Z,62.54
2023-03-25T06:51:39.467Z,61.12
2023-03-25T06:55:41.521Z,61.08
2023-03-25T06:59:41.970Z,60.74
2023-03-25T07:03:45.237Z,60.97
2023-03-25T07:07:45.893Z,61.13
2023-03-25T07:11:46.500Z,61.58
2023-03-25T07:15:47.087Z,60.81
2023-03-25T07:19:50.343Z,59.98
2023-03-25T07:23:51.041Z,61.54
2023-03-25T07:27:52.617Z,61.10
2023-03-25T07:31:56.176Z,61.41
2023-03-25T07:35:59.216Z,60.40
2023-03-25T07:40:00.566Z,60.05
2023-03-25T07:44:01.205Z,61.13
2023-03-25T07:48:06.394Z,59.75
2023-03-25T07:52:10.135Z,58.31
2023-03-25T07:56:12.784Z,59.01
2023-03-25T08:00:16.162Z,58.93
2023-03-25T08:04:16.918Z,59.28
2023-03-25T08:08:20.491Z,58.38
2023-03-25T08:12:21.224Z,58.24
2023-03-25T08:16:21.978Z,58.44
2023-03-25T08:20:23.108Z,58.68
2023-03-25T08:24:28.257Z,57.72
2023-03-25T08:28:29.285Z,56.61
2023-03-25T08:32:31.403Z,56.36
2023-03-25T08:36:32.469Z,54.66
2023-03-25T08:40:35.718Z,53.28
2023-03-25T08:44:36.222Z,52.42
2023-03-25T08:48:38.091Z,51.99
2023-03-25T08:52:39.762Z,51.48
2023-03-25T08:56:43.826Z,50.04
2023-03-25T09:00:44.922Z,49.84
2023-03-25T09:04:46.205Z,48.13
2023-03-25T09:08:50.477Z,49.03
2023-03-25T09:12:54.390Z,48.71
2023-03-25T09:16:54.821Z,49.54
2023-03-25T09:20:56.165Z,47.85
2023-03-25T09:24:56.561Z,46.85
2023-03-25T09:29:01.119Z,45.61
2023-03-25T09:33:01.936Z,45.70
2023-03-25T09:37:03.451Z,44.58
2023-03-25T09:41:22.456Z,45.25
2023-03-25T09:45:39.512Z,45.26
2023-03-25T09:49:45.947Z,45.36
2023-03-25T09:53:56.952Z,45.88
2023-03-25T09:58:05.970Z,46.12
2023-03-25T10:02:34.633Z,44.89
2023-03-25T10:06:43.292Z,42.26
2023-03-25T10:10:51.625Z,43.72
2023-03-25T10:15:16.442Z,45.75
2023-03-25T10:19:47.746Z,45.12
2023-03-25T10:23:59.390Z,43.15
2023-03-25T10:28:03.488Z,44.15
2023-03-25T10:32:14.692Z,43.83
2023-03-25T10:36:23.053Z,45.21
2023-03-25T10:40:30.213Z,43.37
2023-03-25T10:44:32.082Z,43.79
2023-03-25T10:48:34.530Z,42.79
2023-03-25T10:52:38.140Z,41.68
2023-03-25T10:56:46.193Z,41.69
2023-03-25T11:00:47.884Z,42.71
2023-03-25T11:04:54.750Z,42.99
2023-03-25T11:09:23.459Z,43.38
2023-03-25T11:13:29.827Z,44.15
2023-03-25T11:17:33.046Z,44.73
2023-03-25T11:21:38.574Z,44.58
2023-03-25T11:25:45.592Z,45.09
2023-03-25T11:29:57.571Z,47.56
2023-03-25T11:34:18.346Z,50.29
2023-03-25T11:38:26.218Z,51.77
2023-03-25T11:42:43.119Z,50.46
2023-03-25T11:46:50.329Z,50.17
2023-03-25T11:50:59.179Z,54.35
2023-03-25T11:55:01.341Z,58.05
2023-03-25T11:59:12.735Z,61.75
2023-03-25T12:03:25.750Z,71.82
2023-03-25T12:12:04.971Z,78.20
2023-03-25T12:16:34.362Z,78.11
2023-03-25T12:21:01.728Z,76.11
2023-03-25T12:25:21.306Z,70.64
2023-03-25T12:29:38.972Z,64.22
2023-03-25T12:34:00.615Z,59.97
2023-03-25T12:38:34.586Z,62.39
2023-03-25T12:42:52.869Z,61.83
2023-03-25T12:47:20.864Z,62.03
2023-03-25T12:51:45.993Z,58.25
2023-03-25T12:56:10.010Z,55.73
2023-03-25T13:00:51.136Z,57.30
2023-03-25T13:05:08.145Z,56.87
2023-03-25T13:09:21.883Z,56.53
2023-03-25T13:13:27.679Z,54.39
2023-03-25T13:17:37.349Z,52.14
2023-03-25T13:21:44.903Z,52.66
2023-03-25T13:25:55.040Z,52.01
2023-03-25T13:29:59.428Z,55.56
2023-03-25T13:34:19.422Z,55.70
2023-03-25T13:38:30.219Z,58.18
2023-03-25T13:42:46.296Z,58.86
2023-03-25T13:46:51.968Z,59.50
2023-03-25T13:50:53.253Z,57.99
2023-03-25T13:55:01.648Z,63.38
2023-03-25T13:59:28.812Z,68.59
2023-03-25T14:04:12.659Z,68.85
2023-03-25T14:08:50.486Z,67.08
2023-03-25T14:12:56.657Z,68.03
2023-03-25T14:17:02.733Z,66.47
2023-03-25T14:21:25.706Z,69.71
2023-03-25T14:25:37.414Z,68.81
2023-03-25T14:29:44.193Z,66.99
2023-03-25T14:34:40.583Z,65.85
2023-03-25T14:39:00.315Z,59.19
2023-03-25T14:43:02.592Z,61.06
2023-03-25T14:47:25.968Z,61.50
2023-03-25T14:51:53.936Z,65.47
2023-03-25T14:55:58.227Z,70.94
2023-03-25T15:00:13.248Z,71.85
2023-03-25T15:04:31.184Z,70.02
2023-03-25T15:08:40.039Z,66.34
2023-03-25T15:12:46.183Z,64.61
2023-03-25T15:17:05.753Z,57.33
2023-03-25T15:21:08.189Z,58.05
2023-03-25T15:25:19.173Z,54.98
2023-03-25T15:29:52.850Z,54.79
2023-03-25T15:34:17.604Z,52.28
2023-03-25T15:38:49.151Z,52.34
2023-03-25T15:43:44.704Z,54.50
2023-03-25T15:48:35.142Z,55.33
2023-03-25T15:53:35.930Z,55.59
2023-03-25T15:57:51.275Z,57.73
2023-03-25T16:01:59.130Z,57.63
2023-03-25T16:06:12.877Z,59.04
2023-03-25T16:10:24.977Z,58.45
2023-03-25T16:14:26.507Z,59.49
2023-03-25T16:18:29.342Z,60.02
2023-03-25T16:22:35.115Z,60.74
2023-03-25T16:26:41.854Z,59.18
2023-03-25T16:30:45.722Z,59.18
2023-03-25T16:34:46.244Z,58.85
2023-03-25T16:38:52.028Z,59.08
2023-03-25T16:42:57.495Z,58.18
2023-03-25T16:47:01.485Z,58.96
2023-03-25T16:51:11.290Z,58.15
2023-03-25T16:55:33.299Z,57.97
2023-03-25T16:59:39.462Z,58.28
2023-03-25T17:03:52.327Z,58.18
2023-03-25T17:08:03.913Z,57.76
2023-03-25T17:12:15.211Z,56.93
2023-03-25T17:16:18.942Z,57.18
2023-03-25T17:20:26.071Z,57.30
2023-03-25T17:24:29.205Z,56.79
2023-03-25T17:28:42.591Z,56.26
2023-03-25T17:32:49.939Z,57.06
2023-03-25T17:37:01.530Z,57.34
2023-03-25T17:41:07.016Z,57.33
2023-03-25T17:45:23.601Z,57.76
2023-03-25T17:49:29.467Z,59.41
2023-03-25T17:53:32.539Z,59.14
2023-03-25T17:57:37.533Z,58.91
2023-03-25T18:01:43.791Z,58.02
2023-03-25T18:05:51.760Z,56.83
2023-03-25T18:09:55.368Z,54.87
2023-03-25T18:14:00.855Z,54.35
2023-03-25T18:18:06.300Z,52.97
2023-03-25T18:22:19.241Z,52.20
2023-03-25T18:26:23.679Z,51.60
2023-03-25T18:30:36.172Z,51.19
2023-03-25T18:34:41.182Z,50.87
2023-03-25T18:38:46.614Z,50.86
2023-03-25T18:42:48.550Z,51.13
2023-03-25T18:46:51.340Z,51.68
2023-03-25T18:50:58.667Z,51.40
2023-03-25T18:55:01.791Z,51.80
2023-03-25T18:59:04.440Z,51.59
2023-03-25T19:03:08.050Z,51.57
2023-03-25T19:07:16.106Z,52.19
2023-03-25T19:11:22.151Z,52.70
2023-03-25T19:15:28.767Z,52.92
2023-03-25T19:19:37.131Z,52.86
2023-03-25T19:23:43.720Z,53.26
2023-03-25T19:27:50.821Z,52.72
2023-03-25T19:31:54.043Z,52.22
2023-03-25T19:36:00.167Z,53.55
2023-03-25T19:40:09.081Z,53.62
2023-03-25T19:44:12.013Z,53.26
2023-03-25T19:48:14.720Z,53.83
2023-03-25T19:52:17.666Z,54.20
2023-03-25T19:56:23.677Z,54.26
2023-03-25T20:00:31.281Z,54.07
2023-03-25T20:04:37.204Z,54.39
2023-03-25T20:08:42.808Z,54.43
2023-03-25T20:12:49.608Z,53.97
2023-03-25T20:16:53.046Z,54.30
2023-03-25T20:20:57.631Z,53.66
2023-03-25T20:25:00.531Z,53.48
2023-03-25T20:29:06.802Z,53.50
2023-03-25T20:33:12.653Z,53.32
2023-03-25T20:37:19.073Z,52.85
2023-03-25T20:41:22.354Z,52.46
2023-03-25T20:55:41.469Z,54.71
2023-03-25T20:59:44.595Z,53.39
2023-03-25T21:03:46.228Z,53.59
2023-03-25T21:07:48.928Z,52.60
2023-03-25T21:11:49.547Z,53.32
2023-03-25T21:15:57.363Z,53.36
2023-03-25T21:19:59.837Z,54.21
2023-03-25T21:24:00.351Z,54.14
2023-03-25T21:28:01.383Z,54.50
2023-03-25T21:32:05.160Z,55.47
2023-03-25T21:36:06.740Z,54.67
2023-03-25T21:40:11.025Z,55.45
2023-03-25T21:44:16.124Z,56.39
2023-03-25T21:48:21.667Z,56.41
2023-03-25T21:52:22.606Z,56.63
2023-03-25T21:56:25.640Z,57.10
2023-03-25T22:00:26.858Z,57.23
2023-03-25T22:04:30.521Z,57.97
2023-03-25T22:08:30.885Z,58.34
2023-03-25T22:12:31.939Z,58.85
2023-03-25T22:16:36.003Z,58.89
2023-03-25T22:20:39.336Z,59.43
2023-03-25T22:24:39.903Z,60.39
2023-03-25T22:28:42.026Z,60.34
2023-03-25T22:32:42.664Z,60.78
2023-03-25T22:36:50.464Z,62.38
2023-03-25T22:40:51.356Z,62.55
2023-03-25T22:44:51.745Z,62.21
2023-03-25T22:48:54.123Z,62.60
2023-03-25T22:52:57.372Z,64.04
2023-03-25T22:56:58.198Z,63.53
2023-03-25T23:01:00.395Z,63.22
2023-03-25T23:09:41.735Z,63.82
2023-03-25T23:13:44.356Z,64.99
2023-03-25T23:17:44.564Z,63.81
2023-03-25T23:21:44.917Z,63.75
2023-03-25T23:25:47.867Z,63.94
2023-03-25T23:29:48.367Z,65.04
2023-03-25T23:33:49.863Z,64.70
2023-03-25T23:37:50.419Z,64.63
2023-03-25T23:41:53.675Z,65.09
2023-03-25T23:45:54.110Z,67.28
2023-03-25T23:49:58.035Z,66.86
2023-03-25T23:53:58.431Z,67.13
2023-03-25T23:58:01.826Z,66.88
